createdAt,value
2022-09-24T00:01:40.941Z,10.20
2022-09-24T00:04:11.769Z,11.80
2022-09-24T00:06:44.590Z,10.20
2022-09-24T00:09:13.895Z,8.30
2022-09-24T00:11:42.634Z,10.30
2022-09-24T00:14:09.291Z,8.50
2022-09-24T00:16:36.034Z,9.30
2022-09-24T00:19:04.869Z,10.30
2022-09-24T00:21:35.032Z,9.90
2022-09-24T00:24:06.554Z,9.00
2022-09-24T00:26:51.842Z,12.30
2022-09-24T00:29:22.273Z,10.80
2022-09-24T00:31:52.075Z,9.40
2022-09-24T00:34:19.951Z,11.00
2022-09-24T00:36:48.009Z,11.90
2022-09-24T00:39:16.490Z,13.20
2022-09-24T00:41:46.756Z,11.60
2022-09-24T00:44:44.789Z,11.40
2022-09-24T00:47:27.103Z,11.80
2022-09-24T00:50:30.825Z,11.10
2022-09-24T00:53:07.173Z,15.70
2022-09-24T00:55:36.430Z,13.80
2022-09-24T00:58:26.091Z,16.60
2022-09-24T01:01:05.137Z,11.10
2022-09-24T01:03:35.948Z,13.70
2022-09-24T01:06:02.702Z,13.10
2022-09-24T01:08:29.309Z,12.40
2022-09-24T01:10:55.814Z,14.00
2022-09-24T01:13:56.218Z,14.40
2022-09-24T01:16:25.723Z,14.20
2022-09-24T01:19:11.155Z,13.80
2022-09-24T01:22:02.972Z,16.80
2022-09-24T01:24:44.879Z,11.90
2022-09-24T01:27:22.879Z,18.10
2022-09-24T01:30:01.980Z,16.00
2022-09-24T01:32:54.980Z,18.50
2022-09-24T01:35:33.923Z,15.70
2022-09-24T01:38:06.539Z,15.00
2022-09-24T01:40:35.377Z,16.30
2022-09-24T01:43:05.341Z,13.90
2022-09-24T01:45:43.138Z,14.50
2022-09-24T01:48:10.399Z,16.70
2022-09-24T01:51:00.275Z,14.60
2022-09-24T01:53:35.471Z,14.80
2022-09-24T01:56:10.350Z,14.10
2022-09-24T01:59:11.182Z,16.00
2022-09-24T02:01:48.103Z,15.80
2022-09-24T02:04:19.436Z,14.60
2022-09-24T02:06:55.371Z,14.00
2022-09-24T02:09:34.296Z,17.30
2022-09-24T02:12:19.358Z,14.80
2022-09-24T02:14:57.480Z,16.10
2022-09-24T02:17:28.608Z,16.00
2022-09-24T02:19:58.521Z,17.70
2022-09-24T02:22:25.710Z,17.00
2022-09-24T02:24:58.265Z,18.50
2022-09-24T02:27:28.469Z,16.70
2022-09-24T02:29:59.746Z,14.90
2022-09-24T02:32:30.686Z,14.40
2022-09-24T02:35:05.379Z,21.60
2022-09-24T02:37:43.994Z,14.30
2022-09-24T02:40:14.191Z,14.40
2022-09-24T02:42:42.292Z,16.10
2022-09-24T02:45:10.160Z,14.40
2022-09-24T02:47:37.199Z,14.50
2022-09-24T02:50:04.663Z,13.10
2022-09-24T02:52:31.448Z,12.40
2022-09-24T02:54:58.093Z,14.90
2022-09-24T02:57:24.929Z,14.60
2022-09-24T02:59:51.845Z,15.70
2022-09-24T03:02:18.773Z,15.70
2022-09-24T03:04:46.708Z,14.30
2022-09-24T03:07:14.366Z,17.20
2022-09-24T03:09:41.154Z,15.20
2022-09-24T03:12:08.340Z,13.90
2022-09-24T03:14:35.134Z,14.10
2022-09-24T03:17:01.873Z,16.40
2022-09-24T03:19:29.015Z,14.10
2022-09-24T03:21:55.958Z,15.00
2022-09-24T03:24:22.600Z,12.50
2022-09-24T03:26:49.361Z,13.20
2022-09-24T03:29:16.418Z,15.40
2022-09-24T03:31:44.094Z,15.80
2022-09-24T03:34:11.175Z,16.50
2022-09-24T03:36:38.035Z,15.10
2022-09-24T03:39:05.185Z,16.70
2022-09-24T03:41:31.815Z,12.70
2022-09-24T03:43:58.565Z,15.50
2022-09-24T03:46:27.841Z,14.90
2022-09-24T03:48:55.732Z,16.30
2022-09-24T03:51:22.586Z,16.90
2022-09-24T03:53:49.464Z,15.60
2022-09-24T03:56:16.372Z,16.80
2022-09-24T03:58:47.778Z,13.40
2022-09-24T04:01:20.775Z,14.40
2022-09-24T04:03:49.822Z,13.80
2022-09-24T04:06:18.743Z,14.20
2022-09-24T04:08:49.008Z,14.40
2022-09-24T04:11:16.615Z,13.50
2022-09-24T04:13:44.025Z,15.50
2022-09-24T04:16:10.859Z,16.20
2022-09-24T04:18:39.579Z,13.70
2022-09-24T04:21:06.929Z,14.80
2022-09-24T04:23:33.852Z,15.40
2022-09-24T04:26:01.734Z,14.80
2022-09-24T04:28:30.201Z,20.30
2022-09-24T04:30:57.977Z,15.50
2022-09-24T04:33:24.794Z,17.00
2022-09-24T04:35:51.638Z,13.60
2022-09-24T04:38:20.989Z,16.30
2022-09-24T04:40:48.113Z,14.80
2022-09-24T04:43:14.930Z,21.00
2022-09-24T04:45:44.639Z,17.40
2022-09-24T04:48:12.196Z,15.40
2022-09-24T04:50:43.294Z,20.10
2022-09-24T04:53:12.739Z,18.00
2022-09-24T04:55:41.120Z,21.40
2022-09-24T04:58:08.985Z,15.80
2022-09-24T05:00:36.059Z,16.50
2022-09-24T05:03:03.232Z,17.80
2022-09-24T05:05:31.973Z,19.10
2022-09-24T05:08:00.147Z,21.50
2022-09-24T05:10:28.618Z,17.50
2022-09-24T05:12:55.366Z,19.80
2022-09-24T05:15:22.147Z,23.30
2022-09-24T05:17:48.964Z,21.20
2022-09-24T05:20:18.804Z,24.00
2022-09-24T05:22:47.437Z,19.70
2022-09-24T05:25:15.981Z,16.90
2022-09-24T05:28:00.786Z,22.00
2022-09-24T05:30:27.688Z,22.10
2022-09-24T05:32:54.419Z,21.80
2022-09-24T05:35:23.394Z,24.90
2022-09-24T05:37:52.969Z,22.10
2022-09-24T05:40:55.288Z,24.80
2022-09-24T05:43:21.996Z,21.10
2022-09-24T05:45:49.746Z,20.70
2022-09-24T05:48:16.900Z,23.30
2022-09-24T05:50:43.742Z,22.20
2022-09-24T05:53:10.805Z,26.20
2022-09-24T05:55:37.474Z,24.40
2022-09-24T05:58:10.424Z,24.70
2022-09-24T06:00:37.528Z,20.60
2022-09-24T06:03:12.423Z,24.10
2022-09-24T06:05:46.771Z,22.80
2022-09-24T06:08:15.048Z,26.50
2022-09-24T06:10:45.081Z,25.40
2022-09-24T06:13:13.688Z,21.90
2022-09-24T06:15:41.845Z,23.80
2022-09-24T06:18:10.192Z,23.90
2022-09-24T06:20:38.131Z,22.80
2022-09-24T06:23:05.982Z,25.70
2022-09-24T06:25:33.068Z,24.30
2022-09-24T06:28:02.990Z,28.50
2022-09-24T06:30:33.761Z,25.90
2022-09-24T06:33:08.026Z,25.30
2022-09-24T06:35:41.082Z,25.00
2022-09-24T06:38:11.557Z,22.70
2022-09-24T06:40:38.709Z,23.10
2022-09-24T06:43:06.856Z,23.70
2022-09-24T06:45:34.276Z,24.60
2022-09-24T06:48:02.570Z,23.30
2022-09-24T06:50:31.310Z,23.10
2022-09-24T06:52:58.529Z,19.40
2022-09-24T06:55:25.078Z,21.50
2022-09-24T06:58:05.474Z,25.20
2022-09-24T07:00:32.994Z,21.20
2022-09-24T07:03:00.595Z,24.60
2022-09-24T07:05:27.339Z,22.30
2022-09-24T07:07:54.014Z,22.60
2022-09-24T07:10:20.845Z,20.00
2022-09-24T07:12:47.763Z,21.70
2022-09-24T07:15:14.503Z,21.30
2022-09-24T07:17:41.440Z,21.90
2022-09-24T07:20:08.702Z,21.90
2022-09-24T07:22:39.835Z,20.90
2022-09-24T07:25:11.802Z,23.20
2022-09-24T07:27:39.059Z,22.60
2022-09-24T07:30:08.005Z,24.80
2022-09-24T07:32:35.910Z,28.40
2022-09-24T07:35:02.687Z,21.10
2022-09-24T07:37:32.071Z,24.90
2022-09-24T07:39:59.125Z,21.70
2022-09-24T07:42:26.005Z,17.50
2022-09-24T07:44:52.648Z,17.60
2022-09-24T07:47:19.505Z,24.10
2022-09-24T07:49:46.175Z,19.70
2022-09-24T07:52:13.326Z,16.60
2022-09-24T07:54:41.380Z,19.30
2022-09-24T07:57:14.938Z,17.40
2022-09-24T07:59:44.218Z,17.10
2022-09-24T08:02:16.860Z,14.40
2022-09-24T08:04:44.419Z,15.50
2022-09-24T08:07:13.717Z,14.20
2022-09-24T08:09:40.498Z,13.40
2022-09-24T08:12:07.840Z,14.80
2022-09-24T08:14:34.724Z,14.70
2022-09-24T08:17:02.207Z,13.80
2022-09-24T08:19:30.885Z,12.60
2022-09-24T08:21:58.220Z,16.80
2022-09-24T08:24:25.711Z,13.60
2022-09-24T08:26:52.498Z,16.20
2022-09-24T08:29:19.409Z,13.20
2022-09-24T08:31:46.236Z,13.90
2022-09-24T08:34:14.327Z,12.40
2022-09-24T08:36:43.150Z,11.80
2022-09-24T08:39:13.315Z,14.60
2022-09-24T08:41:57.561Z,10.60
2022-09-24T08:45:04.901Z,17.20
2022-09-24T08:47:43.056Z,14.70
2022-09-24T08:50:17.782Z,12.30
2022-09-24T08:52:58.554Z,10.60
2022-09-24T08:55:38.195Z,10.90
2022-09-24T08:58:11.237Z,11.10
2022-09-24T09:00:56.317Z,9.50
2022-09-24T09:03:36.728Z,10.00
2022-09-24T09:06:18.843Z,9.30
2022-09-24T09:09:06.897Z,12.10
2022-09-24T09:11:37.465Z,10.50
2022-09-24T09:14:19.315Z,7.20
2022-09-24T09:16:55.132Z,7.10
2022-09-24T09:19:35.181Z,7.70
2022-09-24T09:22:15.767Z,7.10
2022-09-24T09:24:49.988Z,9.40
2022-09-24T09:27:19.704Z,5.00
2022-09-24T09:29:54.261Z,5.40
2022-09-24T09:32:21.036Z,6.30
2022-09-24T09:35:03.005Z,6.30
2022-09-24T09:38:07.706Z,3.60
2022-09-24T09:40:47.917Z,4.80
2022-09-24T09:43:15.093Z,3.10
2022-09-24T09:46:13.203Z,4.10
2022-09-24T09:48:53.968Z,4.20
2022-09-24T09:51:25.639Z,3.60
2022-09-24T09:53:59.498Z,3.10
2022-09-24T09:56:30.777Z,5.80
2022-09-24T09:59:07.666Z,4.80
2022-09-24T10:01:37.710Z,4.60
2022-09-24T10:04:05.218Z,4.00
2022-09-24T10:06:34.960Z,5.30
2022-09-24T10:09:14.607Z,5.10
2022-09-24T10:11:41.850Z,4.40
2022-09-24T10:14:14.631Z,4.60
2022-09-24T10:16:48.370Z,4.00
2022-09-24T10:19:24.736Z,4.80
2022-09-24T10:21:55.152Z,4.30
2022-09-24T10:24:24.792Z,4.60
2022-09-24T10:26:53.170Z,5.20
2022-09-24T10:29:46.606Z,4.20
2022-09-24T10:32:25.955Z,6.30
2022-09-24T10:35:18.436Z,5.80
2022-09-24T10:37:57.897Z,5.90
2022-09-24T10:40:40.409Z,7.80
2022-09-24T10:43:15.313Z,4.50
2022-09-24T10:46:01.121Z,4.20
2022-09-24T10:48:45.704Z,4.80
2022-09-24T10:51:29.321Z,4.30
2022-09-24T10:54:15.312Z,8.40
2022-09-24T10:56:55.197Z,3.50
2022-09-24T10:59:54.419Z,5.60
2022-09-24T11:02:28.511Z,3.20
2022-09-24T11:05:23.595Z,3.20
2022-09-24T11:08:25.882Z,3.40
2022-09-24T11:11:25.648Z,3.40
2022-09-24T11:14:08.578Z,2.90
2022-09-24T11:17:17.119Z,2.90
2022-09-24T11:19:49.998Z,4.70
2022-09-24T11:22:38.555Z,3.80
2022-09-24T11:25:42.710Z,3.40
2022-09-24T11:28:16.418Z,3.00
2022-09-24T11:31:15.920Z,2.70
2022-09-24T11:34:01.434Z,2.70
2022-09-24T11:36:40.197Z,3.00
2022-09-24T11:39:38.876Z,3.00
2022-09-24T11:42:19.447Z,3.90
2022-09-24T11:45:15.835Z,2.80
2022-09-24T11:48:10.492Z,4.10
2022-09-24T11:51:02.494Z,3.00
2022-09-24T11:53:39.985Z,4.20
2022-09-24T11:56:15.502Z,2.90
2022-09-24T11:58:58.575Z,5.30
2022-09-24T12:01:33.445Z,5.50
2022-09-24T12:04:13.137Z,2.40
2022-09-24T12:06:59.975Z,6.60
2022-09-24T12:09:38.478Z,3.60
2022-09-24T12:12:19.631Z,3.50
2022-09-24T12:14:55.465Z,2.50
2022-09-24T12:17:46.423Z,2.40
2022-09-24T12:20:20.485Z,1.60
2022-09-24T12:22:52.149Z,1.70
2022-09-24T12:25:19.404Z,2.50
2022-09-24T12:27:47.638Z,2.10
2022-09-24T12:30:58.591Z,4.40
2022-09-24T12:33:53.689Z,1.60
2022-09-24T12:36:27.616Z,1.60
2022-09-24T12:39:01.957Z,1.70
2022-09-24T12:41:32.014Z,3.20
2022-09-24T12:44:01.295Z,2.20
2022-09-24T12:46:37.960Z,2.10
2022-09-24T12:49:31.228Z,3.10
2022-09-24T12:52:18.666Z,2.60
2022-09-24T12:54:45.934Z,3.10
2022-09-24T12:57:25.262Z,1.70
2022-09-24T13:00:04.444Z,2.60
2022-09-24T13:02:45.842Z,1.80
2022-09-24T13:05:22.123Z,1.60
2022-09-24T13:08:16.520Z,1.60
2022-09-24T13:11:00.349Z,2.50
2022-09-24T13:13:31.440Z,1.40
2022-09-24T13:16:15.882Z,1.40
2022-09-24T13:18:50.350Z,1.80
2022-09-24T13:21:24.780Z,3.80
2022-09-24T13:23:52.217Z,2.50
2022-09-24T13:26:24.629Z,1.60
2022-09-24T13:28:58.674Z,2.00
2022-09-24T13:31:27.103Z,1.30
2022-09-24T13:34:03.535Z,1.30
2022-09-24T13:36:41.920Z,1.30
2022-09-24T13:39:34.649Z,3.50
2022-09-24T13:42:37.234Z,2.10
2022-09-24T13:45:15.563Z,2.30
2022-09-24T13:47:51.578Z,1.60
2022-09-24T13:50:31.976Z,1.50
2022-09-24T13:53:07.163Z,1.40
2022-09-24T13:55:45.169Z,1.00
2022-09-24T13:58:30.586Z,1.30
2022-09-24T14:01:00.104Z,1.50
2022-09-24T14:03:32.923Z,1.70
2022-09-24T14:06:05.149Z,1.40
2022-09-24T14:08:32.758Z,2.30
2022-09-24T14:11:12.915Z,1.20
2022-09-24T14:13:45.559Z,2.40
2022-09-24T14:16:19.395Z,1.60
2022-09-24T14:18:47.319Z,1.70
2022-09-24T14:21:35.255Z,2.90
2022-09-24T14:24:28.264Z,1.70
2022-09-24T14:27:09.506Z,2.40
2022-09-24T14:30:04.231Z,1.80
2022-09-24T14:32:42.061Z,2.40
2022-09-24T14:35:31.809Z,2.70
2022-09-24T14:38:15.859Z,2.40
2022-09-24T14:40:51.472Z,2.60
2022-09-24T14:43:31.291Z,2.20
2022-09-24T14:46:06.676Z,2.30
2022-09-24T14:48:34.865Z,2.00
2022-09-24T14:51:01.735Z,2.50
2022-09-24T14:53:34.716Z,5.70
2022-09-24T14:56:29.874Z,5.80
2022-09-24T14:58:57.025Z,3.80
2022-09-24T15:01:31.205Z,2.30
2022-09-24T15:04:05.168Z,2.00
2022-09-24T15:06:34.812Z,3.00
2022-09-24T15:09:24.665Z,2.00
2022-09-24T15:11:55.181Z,2.00
2022-09-24T15:14:27.006Z,2.00
2022-09-24T15:16:54.981Z,2.20
2022-09-24T15:19:28.292Z,1.70
2022-09-24T15:21:59.950Z,1.40
2022-09-24T15:24:26.838Z,3.00
2022-09-24T15:27:06.236Z,2.00
2022-09-24T15:29:33.799Z,3.10
2022-09-24T15:32:00.998Z,1.90
2022-09-24T15:34:28.776Z,1.80
2022-09-24T15:36:58.891Z,1.70
2022-09-24T15:39:27.765Z,2.80
2022-09-24T15:41:54.571Z,2.10
2022-09-24T15:44:29.690Z,6.80
2022-09-24T15:47:03.125Z,2.20
2022-09-24T15:49:30.889Z,3.50
2022-09-24T15:52:24.016Z,2.60
2022-09-24T15:54:51.959Z,2.80
2022-09-24T15:57:18.811Z,5.10
2022-09-24T15:59:45.675Z,2.10
2022-09-24T16:02:18.710Z,2.30
2022-09-24T16:04:45.919Z,7.40
2022-09-24T16:07:12.762Z,4.30
2022-09-24T16:09:40.344Z,4.30
2022-09-24T16:12:06.979Z,2.00
2022-09-24T16:14:33.722Z,6.10
2022-09-24T16:17:00.481Z,2.20
2022-09-24T16:19:31.135Z,2.80
2022-09-24T16:21:59.293Z,3.00
2022-09-24T16:24:26.439Z,2.80
2022-09-24T16:26:53.109Z,2.30
2022-09-24T16:29:20.039Z,4.60
2022-09-24T16:31:49.005Z,2.00
2022-09-24T16:34:15.971Z,2.70
2022-09-24T16:36:42.756Z,3.50
2022-09-24T16:39:10.111Z,3.50
2022-09-24T16:41:37.476Z,2.40
2022-09-24T16:44:04.374Z,2.70
2022-09-24T16:46:31.429Z,5.10
2022-09-24T16:48:58.237Z,2.80
2022-09-24T16:51:24.905Z,3.10
2022-09-24T16:53:55.990Z,3.10
2022-09-24T16:56:23.779Z,2.50
2022-09-24T16:58:52.009Z,2.60
2022-09-24T17:01:20.716Z,6.80
2022-09-24T17:03:55.622Z,4.90
2022-09-24T17:06:27.947Z,5.20
2022-09-24T17:09:14.386Z,5.20
2022-09-24T17:11:41.948Z,4.80
2022-09-24T17:14:11.850Z,5.30
2022-09-24T17:16:43.265Z,4.80
2022-09-24T17:19:11.475Z,8.30
2022-09-24T17:21:40.929Z,7.60
2022-09-24T17:24:09.097Z,9.80
2022-09-24T17:26:37.912Z,12.10
2022-09-24T17:29:05.651Z,8.00
2022-09-24T17:31:33.073Z,9.30
2022-09-24T17:34:07.089Z,8.30
2022-09-24T17:36:34.982Z,12.40
2022-09-24T17:39:02.691Z,11.60
2022-09-24T17:41:30.102Z,10.80
2022-09-24T17:43:58.240Z,9.60
2022-09-24T17:46:30.620Z,10.20
2022-09-24T17:49:00.056Z,9.70
2022-09-24T17:51:37.911Z,13.40
2022-09-24T17:54:08.419Z,12.80
2022-09-24T17:56:38.696Z,13.80
2022-09-24T17:59:07.903Z,14.90
2022-09-24T18:01:36.610Z,15.40
2022-09-24T18:04:12.867Z,15.60
2022-09-24T18:06:41.298Z,13.50
2022-09-24T18:09:10.065Z,12.30
2022-09-24T18:11:40.578Z,15.60
2022-09-24T18:14:13.935Z,17.60
2022-09-24T18:16:41.627Z,16.30
2022-09-24T18:19:10.497Z,17.90
2022-09-24T18:21:37.802Z,13.50
2022-09-24T18:24:04.788Z,16.50
2022-09-24T18:26:36.344Z,19.50
2022-09-24T18:29:11.116Z,20.20
2022-09-24T18:31:40.737Z,18.00
2022-09-24T18:34:09.317Z,23.00
2022-09-24T18:36:38.664Z,18.60
2022-09-24T18:39:07.936Z,20.60
2022-09-24T18:41:36.605Z,21.90
2022-09-24T18:44:03.969Z,20.30
2022-09-24T18:46:32.526Z,22.10
2022-09-24T18:49:00.334Z,17.80
2022-09-24T18:51:35.994Z,22.60
2022-09-24T18:54:06.520Z,16.60
2022-09-24T18:56:34.476Z,19.60
2022-09-24T18:59:09.767Z,20.10
2022-09-24T19:01:41.917Z,20.50
2022-09-24T19:04:10.236Z,18.80
2022-09-24T19:06:40.202Z,22.50
2022-09-24T19:09:12.953Z,20.60
2022-09-24T19:11:41.535Z,18.10
2022-09-24T19:14:11.571Z,19.60
2022-09-24T19:16:39.366Z,19.50
2022-09-24T19:19:06.549Z,17.50
2022-09-24T19:21:33.311Z,18.10
2022-09-24T19:24:00.155Z,18.50
2022-09-24T19:26:30.481Z,17.00
2022-09-24T19:28:58.250Z,20.70
2022-09-24T19:31:38.252Z,23.40
2022-09-24T19:34:08.072Z,20.80
2022-09-24T19:36:44.647Z,19.70
2022-09-24T19:39:17.668Z,20.30
2022-09-24T19:41:45.228Z,20.10
2022-09-24T19:44:13.030Z,21.30
2022-09-24T19:46:40.691Z,22.60
2022-09-24T19:49:07.798Z,20.30
2022-09-24T19:51:35.876Z,21.20
2022-09-24T19:54:08.242Z,23.70
2022-09-24T19:56:39.537Z,19.10
2022-09-24T19:59:08.893Z,18.80
2022-09-24T20:01:36.000Z,17.70
2022-09-24T20:04:06.361Z,19.00
2022-09-24T20:06:36.088Z,22.40
2022-09-24T20:09:03.406Z,20.60
2022-09-24T20:11:32.205Z,20.50
2022-09-24T20:14:00.635Z,22.10
2022-09-24T20:16:33.273Z,22.40
2022-09-24T20:19:01.404Z,28.60
2022-09-24T20:21:33.942Z,22.80
2022-09-24T20:24:03.085Z,26.10
2022-09-24T20:26:48.794Z,24.80
2022-09-24T20:29:19.130Z,26.70
2022-09-24T20:31:52.035Z,28.30
2022-09-24T20:34:21.821Z,26.50
2022-09-24T20:36:48.873Z,23.00
2022-09-24T20:39:17.032Z,25.30
2022-09-24T20:41:49.121Z,25.50
2022-09-24T20:44:16.354Z,28.20
2022-09-24T20:46:43.431Z,27.60
2022-09-24T20:49:22.089Z,30.60
2022-09-24T20:51:56.193Z,29.50
2022-09-24T20:54:39.655Z,25.30
2022-09-24T20:57:06.614Z,26.80
2022-09-24T20:59:33.462Z,25.50
2022-09-24T21:02:00.771Z,32.90
2022-09-24T21:04:27.738Z,27.60
2022-09-24T21:06:54.666Z,24.50
2022-09-24T21:09:21.535Z,24.60
2022-09-24T21:11:50.520Z,24.30
2022-09-24T21:14:18.391Z,23.80
2022-09-24T21:16:47.080Z,22.90
2022-09-24T21:19:15.517Z,21.30
2022-09-24T21:21:42.718Z,25.70
2022-09-24T21:24:13.874Z,25.70
2022-09-24T21:26:42.329Z,25.60
2022-09-24T21:29:22.279Z,26.00
2022-09-24T21:31:49.218Z,28.20
2022-09-24T21:34:22.616Z,29.10
2022-09-24T21:36:51.917Z,27.10
2022-09-24T21:39:22.613Z,25.80
2022-09-24T21:41:52.553Z,27.30
2022-09-24T21:44:19.528Z,25.50
2022-09-24T21:46:48.062Z,23.20
2022-09-24T21:49:16.609Z,26.00
2022-09-24T21:51:44.752Z,23.80
2022-09-24T21:54:15.985Z,25.00
2022-09-24T21:56:43.759Z,22.50
2022-09-24T21:59:36.614Z,22.50
2022-09-24T22:02:04.090Z,24.40
2022-09-24T22:04:33.726Z,22.40
2022-09-24T22:07:00.583Z,21.30
2022-09-24T22:09:28.893Z,22.40
2022-09-24T22:11:57.309Z,21.90
2022-09-24T22:14:24.112Z,22.70
2022-09-24T22:16:51.224Z,21.40
2022-09-24T22:19:19.147Z,20.90
2022-09-24T22:21:46.407Z,22.70
2022-09-24T22:24:15.574Z,20.30
2022-09-24T22:26:42.627Z,24.40
2022-09-24T22:29:09.360Z,28.70
2022-09-24T22:31:35.998Z,23.90
2022-09-24T22:34:21.495Z,24.60
2022-09-24T22:36:48.520Z,22.90
2022-09-24T22:39:15.279Z,22.60
2022-09-24T22:41:43.636Z,21.70
2022-09-24T22:44:11.564Z,21.90
2022-09-24T22:46:39.138Z,26.40
2022-09-24T22:49:06.425Z,24.00
2022-09-24T22:51:33.499Z,22.30
2022-09-24T22:54:00.825Z,22.90
2022-09-24T22:56:29.506Z,26.20
2022-09-24T22:59:00.560Z,23.20
2022-09-24T23:01:34.602Z,24.40
2022-09-24T23:04:02.014Z,25.50
2022-09-24T23:06:35.124Z,23.60
2022-09-24T23:09:02.256Z,27.10
2022-09-24T23:11:31.968Z,25.30
2022-09-24T23:14:02.630Z,22.80
2022-09-24T23:16:32.094Z,23.80
2022-09-24T23:19:01.298Z,25.80
2022-09-24T23:21:30.999Z,27.90
2022-09-24T23:24:06.972Z,23.60
2022-09-24T23:26:34.056Z,22.90
2022-09-24T23:29:01.973Z,24.10
2022-09-24T23:31:31.553Z,22.70
2022-09-24T23:34:00.701Z,21.80
2022-09-24T23:36:30.529Z,23.60
2022-09-24T23:38:59.271Z,24.70
2022-09-24T23:41:28.475Z,24.70
2022-09-24T23:44:01.563Z,21.70
2022-09-24T23:46:29.679Z,25.20
2022-09-24T23:48:56.902Z,25.00
2022-09-24T23:51:24.093Z,21.40
2022-09-24T23:53:51.399Z,21.70
2022-09-24T23:56:19.763Z,27.10
2022-09-24T23:58:47.218Z,19.70
